sensor_id;sensor_type;location;lat;lon;timestamp;P1;durP1;ratioP1;P2;durP2;ratioP2
4527;SDS011;62320;51.520;6.818;2023-01-25T00:09:54;32.72;;;14.43;;
4527;SDS011;62320;51.520;6.818;2023-01-25T00:19:55;37.42;;;14.30;;
4527;SDS011;62320;51.520;6.818;2023-01-25T00:29:57;33.93;;;14.37;;
4527;SDS011;62320;51.520;6.818;2023-01-25T00:40:36;32.70;;;14.70;;
4527;SDS011;62320;51.520;6.818;2023-01-25T00:50:37;37.28;;;14.02;;
4527;SDS011;62320;51.520;6.818;2023-01-25T01:00:38;35.10;;;15.07;;
4527;SDS011;62320;51.520;6.818;2023-01-25T01:10:40;35.07;;;14.10;;
4527;SDS011;62320;51.520;6.818;2023-01-25T01:20:47;38.03;;;15.82;;
4527;SDS011;62320;51.520;6.818;2023-01-25T01:30:52;35.60;;;14.03;;
4527;SDS011;62320;51.520;6.818;2023-01-25T01:40:54;25.73;;;11.47;;
4527;SDS011;62320;51.520;6.818;2023-01-25T02:01:32;31.20;;;12.95;;
4527;SDS011;62320;51.520;6.818;2023-01-25T02:11:34;30.23;;;13.20;;
4527;SDS011;62320;51.520;6.818;2023-01-25T02:21:39;22.63;;;9.93;;
4527;SDS011;62320;51.520;6.818;2023-01-25T02:31:46;29.42;;;12.40;;
4527;SDS011;62320;51.520;6.818;2023-01-25T02:41:49;31.43;;;13.33;;
4527;SDS011;62320;51.520;6.818;2023-01-25T02:51:52;27.80;;;11.40;;
4527;SDS011;62320;51.520;6.818;2023-01-25T03:01:57;29.85;;;12.73;;
4527;SDS011;62320;51.520;6.818;2023-01-25T03:11:59;34.70;;;14.27;;
4527;SDS011;62320;51.520;6.818;2023-01-25T03:22:01;32.90;;;13.37;;
4527;SDS011;62320;51.520;6.818;2023-01-25T03:32:02;31.65;;;12.43;;
4527;SDS011;62320;51.520;6.818;2023-01-25T03:42:04;35.38;;;15.07;;
4527;SDS011;62320;51.520;6.818;2023-01-25T03:52:06;33.07;;;13.37;;
4527;SDS011;62320;51.520;6.818;2023-01-25T04:02:08;32.17;;;12.40;;
4527;SDS011;62320;51.520;6.818;2023-01-25T04:12:10;29.77;;;12.43;;
4527;SDS011;62320;51.520;6.818;2023-01-25T04:22:11;33.67;;;13.00;;
4527;SDS011;62320;51.520;6.818;2023-01-25T04:32:13;34.10;;;14.30;;
4527;SDS011;62320;51.520;6.818;2023-01-25T04:42:14;41.10;;;16.58;;
4527;SDS011;62320;51.520;6.818;2023-01-25T04:52:16;35.20;;;14.30;;
4527;SDS011;62320;51.520;6.818;2023-01-25T05:02:18;34.20;;;13.90;;
4527;SDS011;62320;51.520;6.818;2023-01-25T05:12:19;34.30;;;12.57;;
4527;SDS011;62320;51.520;6.818;2023-01-25T05:22:21;30.67;;;12.02;;
4527;SDS011;62320;51.520;6.818;2023-01-25T05:32:22;30.57;;;11.10;;
4527;SDS011;62320;51.520;6.818;2023-01-25T05:42:24;27.07;;;11.37;;
4527;SDS011;62320;51.520;6.818;2023-01-25T05:52:26;33.28;;;11.65;;
4527;SDS011;62320;51.520;6.818;2023-01-25T06:02:28;47.57;;;17.40;;
4527;SDS011;62320;51.520;6.818;2023-01-25T06:12:30;37.67;;;13.53;;
4527;SDS011;62320;51.520;6.818;2023-01-25T06:22:31;47.72;;;16.00;;
4527;SDS011;62320;51.520;6.818;2023-01-25T06:32:33;43.50;;;15.33;;
4527;SDS011;62320;51.520;6.818;2023-01-25T06:42:34;41.03;;;15.00;;
4527;SDS011;62320;51.520;6.818;2023-01-25T06:52:36;51.00;;;16.08;;
4527;SDS011;62320;51.520;6.818;2023-01-25T07:02:37;53.17;;;16.70;;
4527;SDS011;62320;51.520;6.818;2023-01-25T07:12:39;47.50;;;15.50;;
4527;SDS011;62320;51.520;6.818;2023-01-25T07:22:40;54.13;;;17.97;;
4527;SDS011;62320;51.520;6.818;2023-01-25T07:32:41;58.55;;;18.20;;
4527;SDS011;62320;51.520;6.818;2023-01-25T07:42:43;51.40;;;16.83;;
4527;SDS011;62320;51.520;6.818;2023-01-25T07:52:44;60.73;;;18.80;;
4527;SDS011;62320;51.520;6.818;2023-01-25T08:02:49;71.93;;;20.45;;
4527;SDS011;62320;51.520;6.818;2023-01-25T08:12:51;64.07;;;19.13;;
4527;SDS011;62320;51.520;6.818;2023-01-25T08:22:53;68.73;;;19.60;;
4527;SDS011;62320;51.520;6.818;2023-01-25T08:32:55;57.38;;;18.77;;
4527;SDS011;62320;51.520;6.818;2023-01-25T08:42:57;46.58;;;15.15;;
4527;SDS011;62320;51.520;6.818;2023-01-25T08:52:58;72.93;;;23.20;;
4527;SDS011;62320;51.520;6.818;2023-01-25T09:03:00;65.80;;;20.40;;
4527;SDS011;62320;51.520;6.818;2023-01-25T09:13:01;73.05;;;22.02;;
4527;SDS011;62320;51.520;6.818;2023-01-25T09:23:03;70.60;;;24.33;;
4527;SDS011;62320;51.520;6.818;2023-01-25T09:33:05;71.40;;;24.67;;
4527;SDS011;62320;51.520;6.818;2023-01-25T09:53:37;59.97;;;20.80;;
4527;SDS011;62320;51.520;6.818;2023-01-25T10:13:54;60.53;;;20.25;;
4527;SDS011;62320;51.520;6.818;2023-01-25T10:24:09;58.78;;;19.15;;
4527;SDS011;62320;51.520;6.818;2023-01-25T10:34:15;56.60;;;21.13;;
4527;SDS011;62320;51.520;6.818;2023-01-25T10:44:23;66.17;;;22.60;;
4527;SDS011;62320;51.520;6.818;2023-01-25T10:54:26;60.63;;;22.58;;
4527;SDS011;62320;51.520;6.818;2023-01-25T11:04:31;46.53;;;19.00;;
4527;SDS011;62320;51.520;6.818;2023-01-25T11:14:35;48.90;;;17.77;;
4527;SDS011;62320;51.520;6.818;2023-01-25T11:24:37;48.17;;;19.48;;
4527;SDS011;62320;51.520;6.818;2023-01-25T11:34:38;58.00;;;20.70;;
4527;SDS011;62320;51.520;6.818;2023-01-25T11:44:58;74.63;;;25.73;;
4527;SDS011;62320;51.520;6.818;2023-01-25T12:15:59;70.10;;;24.33;;
4527;SDS011;62320;51.520;6.818;2023-01-25T12:26:21;67.20;;;23.07;;
4527;SDS011;62320;51.520;6.818;2023-01-25T12:36:30;68.43;;;21.40;;
4527;SDS011;62320;51.520;6.818;2023-01-25T12:46:44;64.40;;;23.80;;
4527;SDS011;62320;51.520;6.818;2023-01-25T12:56:53;64.30;;;20.73;;
4527;SDS011;62320;51.520;6.818;2023-01-25T13:07:27;51.85;;;20.17;;
4527;SDS011;62320;51.520;6.818;2023-01-25T13:17:30;65.97;;;21.53;;
4527;SDS011;62320;51.520;6.818;2023-01-25T13:27:36;66.93;;;22.90;;
4527;SDS011;62320;51.520;6.818;2023-01-25T13:37:38;69.88;;;23.65;;
4527;SDS011;62320;51.520;6.818;2023-01-25T13:47:40;56.95;;;19.67;;
4527;SDS011;62320;51.520;6.818;2023-01-25T13:57:43;61.03;;;20.73;;
4527;SDS011;62320;51.520;6.818;2023-01-25T14:07:45;63.83;;;22.53;;
4527;SDS011;62320;51.520;6.818;2023-01-25T14:28:10;63.83;;;22.83;;
4527;SDS011;62320;51.520;6.818;2023-01-25T14:48:33;69.55;;;22.75;;
4527;SDS011;62320;51.520;6.818;2023-01-25T14:58:38;75.23;;;24.97;;
4527;SDS011;62320;51.520;6.818;2023-01-25T15:08:45;72.97;;;25.47;;
4527;SDS011;62320;51.520;6.818;2023-01-25T15:18:48;63.03;;;20.73;;
4527;SDS011;62320;51.520;6.818;2023-01-25T15:28:52;59.67;;;20.77;;
4527;SDS011;62320;51.520;6.818;2023-01-25T15:38:58;55.20;;;18.43;;
4527;SDS011;62320;51.520;6.818;2023-01-25T15:49:02;56.53;;;20.70;;
4527;SDS011;62320;51.520;6.818;2023-01-25T15:59:06;55.35;;;18.40;;
4527;SDS011;62320;51.520;6.818;2023-01-25T16:09:14;61.53;;;20.30;;
4527;SDS011;62320;51.520;6.818;2023-01-25T16:19:18;49.37;;;17.53;;
4527;SDS011;62320;51.520;6.818;2023-01-25T16:29:22;60.95;;;20.70;;
4527;SDS011;62320;51.520;6.818;2023-01-25T16:39:24;50.17;;;18.03;;
4527;SDS011;62320;51.520;6.818;2023-01-25T16:49:28;41.23;;;14.03;;
4527;SDS011;62320;51.520;6.818;2023-01-25T16:59:30;44.35;;;15.35;;
4527;SDS011;62320;51.520;6.818;2023-01-25T17:09:32;60.28;;;20.50;;
4527;SDS011;62320;51.520;6.818;2023-01-25T17:19:34;52.90;;;17.80;;
4527;SDS011;62320;51.520;6.818;2023-01-25T17:29:35;63.93;;;22.27;;
4527;SDS011;62320;51.520;6.818;2023-01-25T17:39:37;43.97;;;16.02;;
4527;SDS011;62320;51.520;6.818;2023-01-25T17:49:38;60.60;;;21.67;;
4527;SDS011;62320;51.520;6.818;2023-01-25T17:59:40;47.23;;;17.23;;
4527;SDS011;62320;51.520;6.818;2023-01-25T18:09:41;58.83;;;20.30;;
4527;SDS011;62320;51.520;6.818;2023-01-25T18:19:43;80.60;;;24.13;;
4527;SDS011;62320;51.520;6.818;2023-01-25T18:29:48;73.60;;;20.73;;
4527;SDS011;62320;51.520;6.818;2023-01-25T18:39:54;68.97;;;21.35;;
4527;SDS011;62320;51.520;6.818;2023-01-25T18:49:56;64.43;;;19.90;;
4527;SDS011;62320;51.520;6.818;2023-01-25T18:59:58;64.93;;;21.97;;
4527;SDS011;62320;51.520;6.818;2023-01-25T19:10:00;75.73;;;23.27;;
4527;SDS011;62320;51.520;6.818;2023-01-25T19:20:01;55.00;;;18.02;;
4527;SDS011;62320;51.520;6.818;2023-01-25T19:30:04;72.93;;;21.20;;
4527;SDS011;62320;51.520;6.818;2023-01-25T19:40:06;85.27;;;25.97;;
4527;SDS011;62320;51.520;6.818;2023-01-25T19:50:08;88.15;;;25.30;;
4527;SDS011;62320;51.520;6.818;2023-01-25T20:00:10;82.93;;;25.67;;
4527;SDS011;62320;51.520;6.818;2023-01-25T20:10:13;90.63;;;26.00;;
4527;SDS011;62320;51.520;6.818;2023-01-25T20:20:14;90.03;;;25.10;;
4527;SDS011;62320;51.520;6.818;2023-01-25T20:30:16;83.68;;;23.90;;
4527;SDS011;62320;51.520;6.818;2023-01-25T20:40:17;84.57;;;25.83;;
4527;SDS011;62320;51.520;6.818;2023-01-25T20:50:19;89.73;;;27.37;;
4527;SDS011;62320;51.520;6.818;2023-01-25T21:00:20;85.22;;;25.98;;
4527;SDS011;62320;51.520;6.818;2023-01-25T21:10:23;86.77;;;24.37;;
4527;SDS011;62320;51.520;6.818;2023-01-25T21:20:24;50.43;;;16.03;;
4527;SDS011;62320;51.520;6.818;2023-01-25T21:30:26;73.57;;;22.88;;
4527;SDS011;62320;51.520;6.818;2023-01-25T21:40:28;66.10;;;17.60;;
4527;SDS011;62320;51.520;6.818;2023-01-25T21:50:30;85.20;;;24.97;;
4527;SDS011;62320;51.520;6.818;2023-01-25T22:00:50;64.22;;;20.20;;
4527;SDS011;62320;51.520;6.818;2023-01-25T22:10:52;88.38;;;23.88;;
4527;SDS011;62320;51.520;6.818;2023-01-25T22:21:03;80.97;;;22.67;;
4527;SDS011;62320;51.520;6.818;2023-01-25T22:31:06;56.80;;;16.23;;
4527;SDS011;62320;51.520;6.818;2023-01-25T22:51:11;78.73;;;20.93;;
4527;SDS011;62320;51.520;6.818;2023-01-25T23:01:23;82.83;;;23.50;;
4527;SDS011;62320;51.520;6.818;2023-01-25T23:11:27;88.70;;;24.42;;
4527;SDS011;62320;51.520;6.818;2023-01-25T23:21:32;101.83;;;27.53;;
4527;SDS011;62320;51.520;6.818;2023-01-25T23:31:33;106.87;;;27.07;;
4527;SDS011;62320;51.520;6.818;2023-01-25T23:41:35;95.40;;;27.58;;
4527;SDS011;62320;51.520;6.818;2023-01-25T23:51:37;94.93;;;26.05;;
